createdAt,value
2018-04-02T00:01:41.487Z,76.48
2018-04-02T00:04:11.481Z,76.64
2018-04-02T00:06:41.479Z,76.54
2018-04-02T00:09:11.318Z,76.38
2018-04-02T00:11:40.965Z,76.29
2018-04-02T00:14:10.611Z,76.24
2018-04-02T00:16:40.441Z,76.33
2018-04-02T00:19:10.271Z,76.24
2018-04-02T00:21:40.112Z,76.22
2018-04-02T00:24:09.947Z,76.20
2018-04-02T00:26:39.781Z,76.20
2018-04-02T00:29:09.625Z,76.19
2018-04-02T00:31:39.552Z,76.22
2018-04-02T00:34:09.764Z,76.24
2018-04-02T00:36:39.767Z,76.11
2018-04-02T00:39:09.643Z,75.99
2018-04-02T00:41:39.260Z,75.86
2018-04-02T00:44:09.165Z,75.67
2018-04-02T00:46:38.984Z,75.58
2018-04-02T00:49:08.825Z,75.53
2018-04-02T00:51:38.684Z,75.60
2018-04-02T00:54:08.639Z,75.28
2018-04-02T00:56:38.491Z,75.12
2018-04-02T00:59:08.406Z,75.01
2018-04-02T01:01:38.235Z,74.80
2018-04-02T01:04:08.147Z,74.50
2018-04-02T01:06:38.004Z,74.46
2018-04-02T01:09:07.856Z,74.44
2018-04-02T01:11:37.695Z,74.54
2018-04-02T01:14:07.514Z,74.48
2018-04-02T01:16:37.352Z,74.18
2018-04-02T01:19:07.532Z,73.95
2018-04-02T01:21:37.436Z,73.95
2018-04-02T01:24:07.276Z,74.09
2018-04-02T01:26:37.121Z,73.83
2018-04-02T01:29:07.311Z,73.67
2018-04-02T01:31:37.141Z,73.56
2018-04-02T01:34:06.993Z,73.47
2018-04-02T01:36:36.824Z,73.49
2018-04-02T01:39:06.345Z,73.86
2018-04-02T01:41:36.188Z,74.74
2018-04-02T01:44:06.040Z,75.05
2018-04-02T01:46:35.875Z,75.15
2018-04-02T01:49:05.800Z,75.64
2018-04-02T01:51:35.624Z,76.54
2018-04-02T01:54:05.488Z,76.68
2018-04-02T01:56:35.627Z,77.10
2018-04-02T01:59:05.459Z,77.38
2018-04-02T02:01:35.315Z,77.83
2018-04-02T02:04:04.944Z,76.93
2018-04-02T02:06:34.587Z,76.37
2018-04-02T02:09:03.676Z,76.12
2018-04-02T02:11:33.504Z,74.95
2018-04-02T02:14:03.348Z,74.42
2018-04-02T02:16:33.024Z,73.67
2018-04-02T02:19:02.864Z,73.73
2018-04-02T02:21:32.709Z,73.16
2018-04-02T02:24:02.528Z,73.32
2018-04-02T02:26:32.829Z,74.01
2018-04-02T02:29:02.668Z,74.54
2018-04-02T02:31:32.496Z,74.90
2018-04-02T02:34:02.354Z,75.23
2018-04-02T02:36:32.217Z,75.50
2018-04-02T02:39:02.050Z,75.46
2018-04-02T02:41:31.900Z,75.49
2018-04-02T02:44:01.737Z,75.93
2018-04-02T02:46:31.616Z,76.16
2018-04-02T02:49:01.449Z,76.65
2018-04-02T02:51:31.339Z,77.43
2018-04-02T02:54:01.217Z,77.71
2018-04-02T02:56:31.035Z,78.01
2018-04-02T02:59:00.865Z,78.55
2018-04-02T03:01:30.852Z,79.53
2018-04-02T03:04:00.662Z,80.23
2018-04-02T03:06:30.533Z,80.53
2018-04-02T03:09:00.569Z,80.65
2018-04-02T03:11:30.460Z,80.84
2018-04-02T03:14:00.088Z,81.07
2018-04-02T03:16:29.929Z,81.25
2018-04-02T03:18:59.781Z,81.26
2018-04-02T03:21:29.804Z,81.15
2018-04-02T03:23:59.672Z,81.04
2018-04-02T03:26:29.491Z,81.08
2018-04-02T03:28:59.461Z,80.97
2018-04-02T03:31:32.337Z,80.75
2018-04-02T03:34:02.172Z,80.72
2018-04-02T03:36:32.163Z,80.69
2018-04-02T03:39:02.120Z,80.57
2018-04-02T03:41:31.971Z,80.46
2018-04-02T03:44:01.791Z,79.75
2018-04-02T03:46:31.783Z,79.59
2018-04-02T03:49:01.660Z,79.33
2018-04-02T03:51:31.479Z,79.13
2018-04-02T03:54:01.444Z,78.36
2018-04-02T03:56:31.273Z,78.05
2018-04-02T03:59:01.110Z,77.85
2018-04-02T04:01:30.982Z,77.18
2018-04-02T04:04:00.954Z,77.13
2018-04-02T04:06:30.792Z,77.08
2018-04-02T04:09:00.658Z,76.76
2018-04-02T04:11:30.484Z,76.47
2018-04-02T04:14:00.313Z,76.41
2018-04-02T04:16:30.148Z,75.99
2018-04-02T04:19:00.027Z,75.91
2018-04-02T04:21:29.847Z,76.14
2018-04-02T04:23:59.708Z,76.07
2018-04-02T04:26:29.544Z,75.94
2018-04-02T04:28:59.391Z,75.77
2018-04-02T04:31:29.241Z,75.39
2018-04-02T04:33:59.316Z,75.28
2018-04-02T04:36:29.162Z,75.57
2018-04-02T04:38:58.982Z,75.53
2018-04-02T04:41:28.927Z,75.56
2018-04-02T04:43:58.778Z,75.38
2018-04-02T04:46:28.602Z,75.20
2018-04-02T04:48:58.449Z,75.05
2018-04-02T04:51:28.397Z,74.61
2018-04-02T04:53:58.256Z,74.03
2018-04-02T04:56:28.081Z,73.27
2018-04-02T04:58:57.959Z,73.12
2018-04-02T05:01:27.840Z,72.35
2018-04-02T05:03:58.159Z,72.35
2018-04-02T05:06:27.993Z,72.07
2018-04-02T05:08:57.835Z,72.01
2018-04-02T05:11:27.813Z,72.18
2018-04-02T05:13:57.637Z,72.50
2018-04-02T05:16:27.496Z,73.05
2018-04-02T05:18:57.318Z,73.59
2018-04-02T05:21:27.271Z,73.98
2018-04-02T05:23:57.116Z,74.62
2018-04-02T05:26:26.962Z,74.84
2018-04-02T05:28:56.889Z,75.13
2018-04-02T05:31:26.748Z,75.23
2018-04-02T05:33:56.572Z,75.25
2018-04-02T05:36:26.593Z,75.38
2018-04-02T05:38:56.435Z,75.49
2018-04-02T05:41:26.272Z,75.50
2018-04-02T05:43:56.132Z,75.61
2018-04-02T05:46:25.960Z,75.58
2018-04-02T05:48:55.788Z,75.46
2018-04-02T05:51:25.634Z,75.38
2018-04-02T05:53:55.467Z,75.19
2018-04-02T05:56:25.448Z,74.82
2018-04-02T05:58:55.331Z,74.79
2018-04-02T06:01:25.153Z,74.39
2018-04-02T06:03:55.004Z,73.91
2018-04-02T06:06:24.863Z,73.74
2018-04-02T06:08:55.418Z,73.42
2018-04-02T06:11:25.052Z,73.47
2018-04-02T06:13:54.896Z,73.14
2018-04-02T06:16:24.749Z,72.91
2018-04-02T06:18:54.686Z,72.20
2018-04-02T06:21:24.520Z,71.51
2018-04-02T06:23:54.353Z,71.68
2018-04-02T06:26:24.205Z,71.69
2018-04-02T06:28:54.040Z,72.08
2018-04-02T06:31:23.868Z,72.05
2018-04-02T06:33:53.755Z,71.94
2018-04-02T06:36:23.620Z,71.81
2018-04-02T06:38:53.602Z,71.46
2018-04-02T06:41:23.421Z,71.48
2018-04-02T06:43:53.252Z,71.62
2018-04-02T06:46:23.260Z,71.18
2018-04-02T06:48:53.100Z,71.09
2018-04-02T06:51:22.964Z,70.85
2018-04-02T06:53:52.863Z,70.81
2018-04-02T06:56:22.697Z,70.40
2018-04-02T06:58:52.680Z,69.93
2018-04-02T07:01:22.296Z,69.49
2018-04-02T07:03:51.915Z,69.40
2018-04-02T07:06:21.768Z,68.84
2018-04-02T07:08:51.603Z,68.48
2018-04-02T07:11:21.460Z,68.43
2018-04-02T07:13:51.288Z,67.96
2018-04-02T07:16:21.105Z,67.63
2018-04-02T07:18:51.019Z,67.34
2018-04-02T07:21:20.871Z,66.63
2018-04-02T07:23:50.708Z,65.59
2018-04-02T07:26:20.611Z,64.94
2018-04-02T07:28:50.436Z,64.23
2018-04-02T07:31:20.376Z,63.30
2018-04-02T07:33:50.235Z,63.24
2018-04-02T07:36:20.072Z,62.99
2018-04-02T07:38:49.917Z,62.58
2018-04-02T07:41:19.778Z,63.04
2018-04-02T07:43:49.734Z,62.85
2018-04-02T07:46:19.576Z,62.54
2018-04-02T07:48:49.252Z,62.56
2018-04-02T07:51:19.065Z,62.40
2018-04-02T07:53:48.971Z,62.65
2018-04-02T07:56:19.285Z,62.32
2018-04-02T07:58:49.182Z,61.95
2018-04-02T08:01:19.525Z,62.28
2018-04-02T08:03:49.847Z,61.77
2018-04-02T08:06:19.819Z,61.71
2018-04-02T08:08:49.664Z,61.45
2018-04-02T08:11:19.323Z,61.23
2018-04-02T08:13:49.158Z,60.60
2018-04-02T08:16:18.996Z,60.27
2018-04-02T08:18:48.832Z,59.98
2018-04-02T08:21:18.683Z,59.21
2018-04-02T08:23:48.521Z,59.31
2018-04-02T08:26:18.382Z,59.83
2018-04-02T08:28:48.000Z,59.16
2018-04-02T08:31:17.820Z,59.14
2018-04-02T08:33:47.685Z,59.03
2018-04-02T08:36:17.664Z,59.04
2018-04-02T08:38:47.519Z,58.40
2018-04-02T08:41:17.652Z,58.05
2018-04-02T08:43:47.492Z,57.24
2018-04-02T08:46:17.363Z,56.13
2018-04-02T08:48:47.400Z,56.69
2018-04-02T08:51:17.278Z,56.92
2018-04-02T08:53:47.145Z,56.10
2018-04-02T08:56:16.999Z,56.06
2018-04-02T08:58:46.834Z,55.23
2018-04-02T09:01:16.678Z,55.61
2018-04-02T09:03:46.548Z,54.63
2018-04-02T09:06:16.414Z,54.08
2018-04-02T09:08:46.273Z,52.50
2018-04-02T09:11:16.108Z,52.74
2018-04-02T09:13:45.947Z,52.10
2018-04-02T09:16:15.822Z,51.85
2018-04-02T09:18:45.665Z,51.60
2018-04-02T09:21:15.522Z,50.60
2018-04-02T09:23:45.457Z,50.98
2018-04-02T09:26:15.082Z,51.16
2018-04-02T09:28:44.728Z,50.40
2018-04-02T09:31:14.372Z,50.41
2018-04-02T09:33:44.017Z,50.39
2018-04-02T09:36:13.852Z,50.17
2018-04-02T09:38:43.720Z,50.13
2018-04-02T09:41:13.697Z,49.37
2018-04-02T09:43:43.525Z,49.57
2018-04-02T09:46:13.372Z,49.02
2018-04-02T09:48:43.240Z,48.13
2018-04-02T09:51:13.071Z,47.76
2018-04-02T09:53:42.917Z,47.97
2018-04-02T09:56:12.768Z,46.15
2018-04-02T09:58:43.263Z,44.37
2018-04-02T10:01:13.016Z,44.40
2018-04-02T10:03:48.187Z,45.12
2018-04-02T10:06:18.044Z,46.28
2018-04-02T10:08:47.892Z,46.10
2018-04-02T10:11:17.839Z,44.31
2018-04-02T10:13:47.687Z,44.88
2018-04-02T10:16:17.655Z,44.46
2018-04-02T10:18:47.517Z,41.35
2018-04-02T10:21:17.079Z,38.76
2018-04-02T10:23:46.657Z,36.29
2018-04-02T10:26:16.475Z,37.28
2018-04-02T10:28:46.209Z,37.12
2018-04-02T10:31:15.855Z,38.65
2018-04-02T10:33:45.478Z,38.16
2018-04-02T10:36:15.150Z,38.28
2018-04-02T10:38:44.880Z,38.89
2018-04-02T10:41:14.439Z,38.86
2018-04-02T10:43:43.983Z,40.85
2018-04-02T10:46:13.859Z,41.94
2018-04-02T10:48:43.760Z,42.22
2018-04-02T10:51:13.814Z,41.54
2018-04-02T10:53:43.808Z,40.34
2018-04-02T10:56:13.670Z,41.00
2018-04-02T10:58:43.522Z,41.31
2018-04-02T11:01:13.363Z,41.55
2018-04-02T11:03:43.396Z,41.36
2018-04-02T11:06:13.256Z,41.14
2018-04-02T11:08:43.300Z,40.30
2018-04-02T11:11:13.272Z,38.45
2018-04-02T11:13:43.127Z,39.83
2018-04-02T11:16:12.767Z,40.74
2018-04-02T11:18:42.617Z,38.51
2018-04-02T11:21:12.228Z,36.78
2018-04-02T11:23:42.093Z,38.68
2018-04-02T11:26:11.916Z,37.08
2018-04-02T11:28:41.464Z,34.93
2018-04-02T11:31:11.033Z,35.04
2018-04-02T11:33:40.596Z,34.03
2018-04-02T11:36:10.178Z,33.08
2018-04-02T11:38:39.762Z,32.19
2018-04-02T11:41:10.136Z,30.48
2018-04-02T11:43:42.671Z,28.82
2018-04-02T11:46:12.204Z,29.43
2018-04-02T11:48:41.766Z,28.25
2018-04-02T11:51:11.431Z,27.23
2018-04-02T11:53:43.093Z,26.19
2018-04-02T11:56:12.668Z,26.73
2018-04-02T11:58:42.270Z,27.11
2018-04-02T12:01:11.818Z,23.00
2018-04-02T12:03:41.408Z,22.06
2018-04-02T12:06:10.741Z,21.65
2018-04-02T12:08:40.292Z,21.74
2018-04-02T12:11:09.862Z,23.28
2018-04-02T12:13:39.416Z,23.07
2018-04-02T12:16:09.104Z,22.17
2018-04-02T12:18:38.679Z,22.21
2018-04-02T12:21:08.077Z,22.01
2018-04-02T12:23:37.783Z,22.91
2018-04-02T12:26:07.401Z,24.69
2018-04-02T12:28:37.129Z,23.90
2018-04-02T12:31:06.724Z,21.94
2018-04-02T12:33:36.506Z,22.87
2018-04-02T12:36:06.585Z,20.92
2018-04-02T12:38:35.742Z,20.40
2018-04-02T12:41:05.328Z,18.62
2018-04-02T12:43:34.892Z,19.98
2018-04-02T12:46:04.737Z,20.48
2018-04-02T12:48:34.284Z,19.59
2018-04-02T12:51:03.834Z,17.74
2018-04-02T12:53:33.437Z,17.46
2018-04-02T12:56:02.994Z,16.97
2018-04-02T12:58:32.553Z,16.62
2018-04-02T13:01:02.120Z,16.66
2018-04-02T13:03:31.673Z,15.96
2018-04-02T13:06:01.233Z,17.14
2018-04-02T13:08:30.815Z,17.72
2018-04-02T13:11:00.370Z,15.82
2018-04-02T13:13:29.964Z,15.09
2018-04-02T13:15:59.588Z,18.03
2018-04-02T13:18:29.120Z,17.88
2018-04-02T13:20:58.753Z,17.48
2018-04-02T13:23:31.317Z,17.28
2018-04-02T13:26:00.870Z,16.42
2018-04-02T13:28:30.430Z,16.63
2018-04-02T13:31:00.000Z,16.46
2018-04-02T13:33:29.711Z,15.82
2018-04-02T13:35:59.265Z,15.14
2018-04-02T13:38:28.833Z,14.71
2018-04-02T13:40:58.408Z,15.19
2018-04-02T13:43:27.956Z,14.18
2018-04-02T13:45:57.536Z,14.56
2018-04-02T13:48:27.120Z,15.54
2018-04-02T13:50:56.679Z,16.65
2018-04-02T13:53:26.224Z,16.70
2018-04-02T13:55:55.801Z,15.75
2018-04-02T13:58:25.367Z,15.93
2018-04-02T14:00:55.127Z,14.69
2018-04-02T14:03:24.503Z,14.48
2018-04-02T14:05:54.088Z,14.73
2018-04-02T14:08:23.680Z,15.37
2018-04-02T14:10:53.309Z,14.71
2018-04-02T14:13:23.175Z,14.77
2018-04-02T14:15:52.761Z,15.00
2018-04-02T14:18:22.324Z,15.80
2018-04-02T14:20:51.937Z,16.28
2018-04-02T14:23:21.501Z,18.25
2018-04-02T14:25:51.192Z,18.02
2018-04-02T14:28:20.739Z,18.66
2018-04-02T14:30:50.430Z,18.72
2018-04-02T14:33:19.748Z,18.60
2018-04-02T14:35:49.473Z,18.75
2018-04-02T14:38:19.013Z,18.45
2018-04-02T14:40:48.599Z,18.40
2018-04-02T14:43:18.148Z,18.14
2018-04-02T14:45:47.709Z,18.48
2018-04-02T14:48:17.287Z,17.99
2018-04-02T14:50:46.887Z,17.54
2018-04-02T14:53:16.208Z,18.75
2018-04-02T14:55:45.774Z,19.01
2018-04-02T14:58:15.340Z,19.29
2018-04-02T15:00:44.808Z,18.82
2018-04-02T15:03:14.431Z,18.68
2018-04-02T15:05:43.968Z,18.36
2018-04-02T15:08:13.750Z,18.29
2018-04-02T15:10:43.477Z,18.36
2018-04-02T15:13:13.028Z,18.33
2018-04-02T15:15:42.605Z,18.27
2018-04-02T15:18:12.167Z,18.22
2018-04-02T15:20:41.774Z,18.51
2018-04-02T15:23:11.475Z,18.72
2018-04-02T15:25:41.038Z,19.25
2018-04-02T15:28:10.611Z,19.18
2018-04-02T15:30:40.174Z,20.24
2018-04-02T15:33:09.731Z,21.10
2018-04-02T15:35:39.317Z,21.67
2018-04-02T15:38:08.903Z,22.25
2018-04-02T15:40:38.452Z,22.33
2018-04-02T15:43:08.136Z,22.73
2018-04-02T15:45:37.700Z,23.28
2018-04-02T15:48:07.477Z,23.59
2018-04-02T15:50:37.048Z,23.82
2018-04-02T15:53:06.601Z,24.21
2018-04-02T15:55:36.177Z,25.17
2018-04-02T15:58:05.749Z,25.82
2018-04-02T16:00:35.325Z,26.38
2018-04-02T16:03:04.900Z,27.23
2018-04-02T16:05:34.432Z,27.48
2018-04-02T16:08:04.041Z,28.09
2018-04-02T16:10:33.631Z,28.49
2018-04-02T16:13:03.176Z,29.35
2018-04-02T16:15:32.744Z,29.86
2018-04-02T16:18:02.323Z,30.06
2018-04-02T16:20:31.883Z,31.53
2018-04-02T16:23:01.426Z,32.08
2018-04-02T16:25:30.988Z,32.31
2018-04-02T16:28:00.546Z,32.98
2018-04-02T16:30:30.132Z,32.99
2018-04-02T16:32:59.693Z,33.10
2018-04-02T16:35:29.384Z,32.98
2018-04-02T16:37:59.028Z,33.21
2018-04-02T16:40:28.595Z,32.80
2018-04-02T16:42:58.274Z,32.85
2018-04-02T16:45:27.831Z,33.06
2018-04-02T16:47:57.407Z,33.46
2018-04-02T16:50:27.024Z,33.97
2018-04-02T16:52:56.593Z,34.06
2018-04-02T16:55:26.328Z,34.39
2018-04-02T16:57:55.905Z,34.63
2018-04-02T17:00:25.721Z,34.72
2018-04-02T17:02:55.265Z,34.75
2018-04-02T17:05:24.847Z,35.18
2018-04-02T17:07:54.387Z,35.56
2018-04-02T17:10:23.960Z,35.77
2018-04-02T17:12:53.515Z,36.09
2018-04-02T17:15:23.084Z,36.31
2018-04-02T17:17:52.640Z,36.52
2018-04-02T17:20:22.200Z,36.76
2018-04-02T17:22:52.064Z,37.19
2018-04-02T17:25:21.625Z,37.45
2018-04-02T17:27:51.348Z,37.62
2018-04-02T17:30:21.016Z,37.80
2018-04-02T17:32:50.579Z,37.98
2018-04-02T17:35:20.141Z,38.18
2018-04-02T17:37:49.759Z,38.39
2018-04-02T17:40:19.382Z,38.63
2018-04-02T17:42:49.092Z,38.82
2018-04-02T17:45:19.232Z,38.93
2018-04-02T17:47:49.072Z,39.09
2018-04-02T17:50:18.917Z,39.34
2018-04-02T17:52:48.824Z,39.66
2018-04-02T17:55:18.705Z,39.81
2018-04-02T17:57:48.564Z,39.98
2018-04-02T18:00:18.218Z,40.22
2018-04-02T18:02:48.067Z,40.54
2018-04-02T18:05:17.701Z,40.68
2018-04-02T18:07:47.389Z,40.82
2018-04-02T18:10:17.260Z,41.22
2018-04-02T18:12:47.150Z,41.40
2018-04-02T18:15:16.982Z,41.65
2018-04-02T18:17:46.942Z,41.88
2018-04-02T18:20:16.884Z,42.16
2018-04-02T18:22:46.734Z,42.46
2018-04-02T18:25:16.588Z,42.59
2018-04-02T18:27:46.426Z,42.75
2018-04-02T18:30:16.299Z,42.89
2018-04-02T18:32:46.161Z,43.10
2018-04-02T18:35:16.202Z,43.34
2018-04-02T18:37:46.032Z,43.50
2018-04-02T18:40:15.880Z,43.79
2018-04-02T18:42:45.833Z,44.02
2018-04-02T18:45:15.684Z,44.07
2018-04-02T18:47:45.541Z,44.33
2018-04-02T18:50:15.380Z,44.56
2018-04-02T18:52:45.232Z,44.61
2018-04-02T18:55:15.232Z,44.67
2018-04-02T18:57:45.253Z,44.77
2018-04-02T19:00:15.420Z,44.72
2018-04-02T19:02:45.336Z,44.77
2018-04-02T19:05:15.412Z,44.86
2018-04-02T19:07:45.450Z,45.01
2018-04-02T19:10:15.384Z,45.24
2018-04-02T19:12:45.238Z,45.34
2018-04-02T19:15:15.101Z,45.57
2018-04-02T19:17:44.939Z,45.77
2018-04-02T19:20:14.801Z,45.92
2018-04-02T19:22:44.658Z,46.02
2018-04-02T19:25:14.485Z,46.22
2018-04-02T19:27:44.339Z,46.39
2018-04-02T19:30:14.199Z,46.80
2018-04-02T19:32:44.069Z,46.65
2018-04-02T19:35:13.941Z,46.69
2018-04-02T19:37:43.772Z,46.78
2018-04-02T19:40:13.641Z,46.92
2018-04-02T19:42:43.500Z,47.15
2018-04-02T19:45:13.561Z,47.32
2018-04-02T19:47:43.407Z,47.61
2018-04-02T19:50:13.263Z,47.82
2018-04-02T19:52:43.212Z,47.79
2018-04-02T19:55:13.121Z,47.95
2018-04-02T19:57:43.076Z,48.05
2018-04-02T20:00:12.618Z,48.26
2018-04-02T20:02:42.508Z,48.43
2018-04-02T20:05:12.341Z,48.52
2018-04-02T20:07:42.426Z,48.54
2018-04-02T20:10:12.154Z,48.71
2018-04-02T20:12:42.008Z,48.88
2018-04-02T20:15:11.869Z,48.95
2018-04-02T20:17:41.723Z,49.16
2018-04-02T20:20:13.378Z,49.25
2018-04-02T20:22:43.483Z,49.29
2018-04-02T20:25:13.360Z,49.38
2018-04-02T20:27:43.199Z,49.67
2018-04-02T20:30:13.052Z,49.67
2018-04-02T20:32:42.890Z,49.87
2018-04-02T20:35:12.770Z,49.93
2018-04-02T20:37:42.600Z,50.12
2018-04-02T20:40:12.456Z,50.26
2018-04-02T20:42:42.316Z,50.21
2018-04-02T20:45:12.211Z,50.29
2018-04-02T20:47:43.612Z,50.23
2018-04-02T20:50:13.487Z,50.40
2018-04-02T20:52:43.334Z,50.46
2018-04-02T20:55:13.167Z,50.68
2018-04-02T20:57:43.348Z,50.87
2018-04-02T21:00:13.233Z,50.93
2018-04-02T21:02:43.363Z,51.15
2018-04-02T21:05:13.227Z,51.10
2018-04-02T21:07:43.072Z,51.04
2018-04-02T21:10:12.966Z,51.32
2018-04-02T21:12:42.815Z,51.48
2018-04-02T21:15:12.657Z,51.50
2018-04-02T21:17:42.496Z,51.68
2018-04-02T21:20:12.342Z,51.76
2018-04-02T21:22:42.321Z,51.89
2018-04-02T21:25:12.349Z,52.01
2018-04-02T21:27:42.188Z,52.02
2018-04-02T21:30:12.051Z,52.21
2018-04-02T21:32:41.892Z,52.23
2018-04-02T21:35:11.763Z,52.54
2018-04-02T21:37:41.609Z,52.56
2018-04-02T21:40:12.628Z,52.64
2018-04-02T21:42:42.489Z,52.72
2018-04-02T21:45:12.490Z,52.84
2018-04-02T21:47:42.326Z,52.97
2018-04-02T21:50:12.180Z,52.86
2018-04-02T21:52:42.026Z,52.86
2018-04-02T21:55:11.993Z,52.94
2018-04-02T21:57:41.851Z,53.11
2018-04-02T22:00:11.157Z,53.33
2018-04-02T22:02:40.868Z,53.41
2018-04-02T22:05:10.751Z,53.73
2018-04-02T22:07:40.590Z,53.75
2018-04-02T22:10:10.212Z,54.10
2018-04-02T22:12:40.076Z,54.03
2018-04-02T22:15:09.997Z,54.10
2018-04-02T22:17:39.837Z,54.22
2018-04-02T22:20:10.425Z,54.38
2018-04-02T22:22:40.251Z,54.46
2018-04-02T22:25:10.101Z,54.47
2018-04-02T22:27:39.949Z,54.69
2018-04-02T22:30:10.042Z,54.92
2018-04-02T22:32:39.925Z,54.95
2018-04-02T22:35:09.589Z,55.20
2018-04-02T22:37:39.530Z,55.24
2018-04-02T22:40:09.227Z,55.43
2018-04-02T22:42:39.529Z,55.48
2018-04-02T22:45:08.852Z,55.51
2018-04-02T22:47:38.474Z,55.62
2018-04-02T22:50:08.123Z,55.69
2018-04-02T22:52:37.963Z,55.79
2018-04-02T22:55:07.820Z,56.04
2018-04-02T22:57:37.687Z,56.16
2018-04-02T23:00:07.563Z,56.33
2018-04-02T23:02:36.861Z,56.53
2018-04-02T23:05:06.488Z,56.38
2018-04-02T23:07:36.360Z,56.43
2018-04-02T23:10:06.219Z,56.36
2018-04-02T23:12:36.072Z,56.52
2018-04-02T23:15:05.912Z,56.59
2018-04-02T23:17:35.762Z,56.50
2018-04-02T23:20:05.724Z,56.63
2018-04-02T23:22:46.894Z,57.00
2018-04-02T23:25:16.747Z,56.94
2018-04-02T23:27:46.700Z,56.98
2018-04-02T23:30:16.551Z,57.34
2018-04-02T23:32:46.374Z,57.56
2018-04-02T23:35:16.216Z,57.68
2018-04-02T23:37:46.128Z,57.80
2018-04-02T23:40:16.004Z,57.86
2018-04-02T23:42:45.832Z,57.83
2018-04-02T23:45:15.837Z,57.99
2018-04-02T23:47:45.697Z,58.49
2018-04-02T23:50:15.700Z,58.69
2018-04-02T23:52:45.580Z,58.90
2018-04-02T23:55:15.432Z,59.18
2018-04-02T23:57:45.608Z,59.37
